Time;durP1;ratioP1;P1;durP2;ratioP2;P2;SDS_P1;SDS_P2;PMS_P1;PMS_P2;Temp;Humidity;BMP_temperature;BMP_pressure;BME280_temperature;BME280_humidity;BME280_pressure;Samples;Min_cycle;Max_cycle;Signal;HPM_P1;HPM_P2
2024/03/07 09:25:59;;;;;;;29.10;17.77;;;;;;;5.82;70.54;100750.09;6214553;22;20021;-96
2024/03/07 09:28:27;;;;;;;29.48;18.13;;;;;;;5.88;71.23;100749.13;6213755;23;20048;-96
2024/03/07 09:30:55;;;;;;;29.80;18.13;;;;;;;5.92;71.04;100740.31;6213566;23;20013;-96
2024/03/07 09:33:22;;;;;;;33.25;19.70;;;;;;;5.99;71.46;100730.59;6213484;23;20016;-96
2024/03/07 09:35:54;;;;;;;35.33;18.80;;;;;;;6.09;71.40;100746.97;6213873;23;20019;-96
2024/03/07 09:38:24;;;;;;;30.05;18.50;;;;;;;6.18;71.75;100743.28;6214426;23;20263;-96
2024/03/07 09:40:54;;;;;;;32.15;19.65;;;;;;;6.25;72.08;100745.72;6213610;23;20063;-95
2024/03/07 09:43:25;;;;;;;31.88;18.98;;;;;;;6.34;71.65;100749.88;6214344;23;20013;-95
2024/03/07 09:45:56;;;;;;;37.88;19.75;;;;;;;6.42;72.10;100741.00;6216123;23;20035;-96
2024/03/07 09:48:27;;;;;;;37.00;20.38;;;;;;;6.49;71.63;100750.41;6215891;23;20465;-96
2024/03/07 09:50:58;;;;;;;40.03;21.27;;;;;;;6.54;71.24;100743.28;6215635;23;20016;-96
2024/03/07 09:53:25;;;;;;;35.17;20.92;;;;;;;6.59;70.90;100751.91;6215990;23;20013;-96
2024/03/07 09:55:54;;;;;;;41.10;21.60;;;;;;;6.61;71.39;100744.88;6216519;23;20063;-96
2024/03/07 09:58:21;;;;;;;38.95;20.60;;;;;;;6.66;70.60;100750.00;6216387;23;20019;-96
2024/03/07 10:00:53;;;;;;;40.45;20.48;;;;;;;6.69;71.17;100742.06;6215660;23;20454;-96
2024/03/07 10:03:23;;;;;;;26.93;15.37;;;;;;;6.73;70.87;100748.09;6216447;23;20480;-95
2024/03/07 10:05:53;;;;;;;44.05;20.95;;;;;;;6.72;70.65;100760.31;6215388;23;20259;-96
2024/03/07 10:08:23;;;;;;;39.10;19.92;;;;;;;6.74;70.42;100752.44;6216363;23;20023;-96
2024/03/07 10:10:56;;;;;;;36.13;19.85;;;;;;;6.72;70.44;100754.22;6215467;23;20024;-96
2024/03/07 10:13:24;;;;;;;37.77;20.63;;;;;;;6.72;70.09;100762.06;6215826;23;20028;-96
2024/03/07 10:15:52;;;;;;;40.35;18.95;;;;;;;6.71;70.71;100761.22;6215861;23;20255;-96
2024/03/07 10:18:22;;;;;;;35.88;19.83;;;;;;;6.71;70.48;100757.72;6215647;23;20020;-96
2024/03/07 10:20:52;;;;;;;38.20;20.02;;;;;;;6.71;71.24;100758.59;6215112;23;20042;-96
2024/03/07 10:23:23;;;;;;;33.45;19.08;;;;;;;6.74;71.06;100760.28;6215864;23;20017;-95
2024/03/07 10:25:50;;;;;;;34.55;19.15;;;;;;;6.80;71.23;100759.28;6215463;23;20025;-96
2024/03/07 10:28:17;;;;;;;33.67;19.52;;;;;;;6.82;71.02;100768.81;6215418;23;20079;-96
2024/03/07 10:30:45;;;;;;;36.58;19.13;;;;;;;6.84;70.79;100756.53;6215680;23;20446;-96
2024/03/07 10:33:12;;;;;;;37.25;18.27;;;;;;;6.86;70.42;100751.25;6215039;23;20595;-96
2024/03/07 10:35:42;;;;;;;33.53;18.70;;;;;;;6.87;70.78;100753.84;6215728;23;20070;-96
2024/03/07 10:38:15;;;;;;;35.13;19.17;;;;;;;6.86;70.73;100749.50;6215336;23;20020;-96
2024/03/07 10:40:42;;;;;;;29.85;17.77;;;;;;;6.88;70.62;100752.09;6215790;23;20016;-96
2024/03/07 10:43:15;;;;;;;33.00;18.77;;;;;;;6.89;71.17;100754.63;6215721;23;20039;-95
2024/03/07 10:45:48;;;;;;;;;;;;;;;6.94;71.34;100756.28;6216276;23;20027;-95
2024/03/07 10:48:20;;;;;;;35.13;18.05;;;;;;;6.98;70.95;100748.31;6215890;23;19916;-96
2024/03/07 10:51:00;;;;;;;33.58;18.70;;;;;;;6.98;71.51;100748.31;6215914;23;20096;-96
2024/03/07 10:53:49;;;;;;;31.48;18.77;;;;;;;7.01;71.93;100747.38;6215010;23;20024;-96
2024/03/07 10:56:41;;;;;;;31.67;19.10;;;;;;;7.06;71.33;100748.13;6215145;23;20017;-96
2024/03/07 10:59:18;;;;;;;34.38;19.02;;;;;;;7.10;71.46;100747.13;6215434;23;20434;-96
2024/03/07 11:01:54;;;;;;;32.97;18.83;;;;;;;7.13;71.14;100752.28;6215618;23;20032;-96
2024/03/07 11:04:24;;;;;;;32.38;18.90;;;;;;;7.17;70.94;100747.81;6215560;23;20020;-96
2024/03/07 11:06:51;;;;;;;33.72;20.20;;;;;;;7.17;70.46;100748.69;6215741;23;20015;-95
2024/03/07 11:09:24;;;;;;;34.83;20.02;;;;;;;7.15;70.80;100749.66;6214804;23;20267;-96
2024/03/07 11:12:00;;;;;;;33.60;19.23;;;;;;;7.16;70.80;100744.38;6215219;23;20032;-96
2024/03/07 11:14:36;;;;;;;33.72;19.33;;;;;;;7.18;71.12;100741.72;6215441;23;20044;-95
2024/03/07 11:17:04;;;;;;;31.73;18.63;;;;;;;7.21;70.97;100740.78;6215173;23;20035;-95
2024/03/07 11:19:36;;;;;;;37.35;19.90;;;;;;;7.22;71.24;100735.47;6215122;23;20016;-96
2024/03/07 11:22:25;;;;;;;32.83;19.38;;;;;;;7.26;71.50;100726.63;6215454;23;20020;-96
2024/03/07 11:25:10;;;;;;;36.28;19.35;;;;;;;7.27;71.58;100730.13;6213281;23;20024;-95
2024/03/07 11:27:42;;;;;;;35.63;20.02;;;;;;;7.33;70.80;100726.47;6160643;23;20019;-96
2024/03/07 11:30:13;;;;;;;36.13;20.20;;;;;;;7.34;71.05;100738.66;6160292;23;20021;-96
2024/03/07 11:32:44;;;;;;;36.80;19.90;;;;;;;7.38;71.45;100725.44;6160631;23;20025;-96
2024/03/07 11:35:14;;;;;;;38.63;21.80;;;;;;;7.41;71.83;100733.19;6160616;23;20017;-96
2024/03/07 11:37:47;;;;;;;39.28;20.70;;;;;;;7.46;72.13;100732.22;6159867;23;20028;-96
2024/03/07 11:40:24;;;;;;;36.15;21.20;;;;;;;7.52;72.38;100734.69;6160305;23;20019;-95
2024/03/07 11:42:59;;;;;;;37.92;19.85;;;;;;;7.61;72.33;100726.53;6160322;23;20040;-95
2024/03/07 11:45:30;;;;;;;36.20;20.17;;;;;;;7.71;72.12;100723.66;6160152;23;20354;-95
2024/03/07 11:48:06;;;;;;;40.50;20.50;;;;;;;7.77;72.17;100716.47;6160228;23;20048;-96
2024/03/07 11:50:36;;;;;;;38.53;21.70;;;;;;;7.87;71.76;100726.66;6160159;23;20013;-95
2024/03/07 11:53:08;;;;;;;40.13;20.42;;;;;;;7.92;71.22;100714.28;6160912;23;20028;-96
2024/03/07 11:55:47;;;;;;;36.35;19.13;;;;;;;7.98;71.41;100708.00;6160079;23;20351;-95
2024/03/07 11:58:16;;;;;;;38.42;20.65;;;;;;;8.01;71.10;100702.66;6160475;23;20025;-96
